Chicago, Illinois
Traffic Map
Current Weather Conditions
Chicago, Illinois
Broken Clouds
Broken Clouds
51°
Feels Like: 51°
Wind Chill: 51° Ceiling: 25000
Heat Index: 51° Visibility: 10mi
Dew Point: 29° Wind: 9mph
Humidity: 43% Direction: 190° (S)
Pressure: 30.24in Gusts: 0mph
Raw Report DataKMDW 201251Z 19008KT 10SM FEW130 BKN250 11/M02 A3024 RMK AO2 SLP240 T01061017 $
Traffic Incident Summary
Active as of:
Severity:
Category:
InformationThere was an issue retrieving the traffic information for this location. Please try a different location or try again shortly.
Advertisements
At Last! Intellicast now available for iPhone and Android